createdAt,value
2023-03-04T00:01:03.188Z,101054.53
2023-03-04T00:03:31.778Z,101063.13
2023-03-04T00:06:00.085Z,101059.72
2023-03-04T00:08:28.788Z,101059.72
2023-03-04T00:10:57.062Z,101053.53
2023-03-04T00:13:25.821Z,101067.78
2023-03-04T00:15:54.119Z,101049.75
2023-03-04T00:18:22.723Z,101056.44
2023-03-04T00:20:51.074Z,101057.28
2023-03-04T00:23:19.802Z,101058.25
2023-03-04T00:25:48.038Z,101057.38
2023-03-04T00:28:16.913Z,101052.06
2023-03-04T00:30:45.209Z,101053.97
2023-03-04T00:33:13.798Z,101055.78
2023-03-04T00:35:42.253Z,101058.53
2023-03-04T00:38:11.001Z,101065.56
2023-03-04T00:40:39.342Z,101058.53
2023-03-04T00:43:07.909Z,101056.88
2023-03-04T00:45:36.361Z,101057.81
2023-03-04T00:48:05.179Z,101056.00
2023-03-04T00:50:33.480Z,101056.97
2023-03-04T00:53:02.268Z,101055.25
2023-03-04T00:55:30.558Z,101055.38
2023-03-04T00:57:59.170Z,101058.03
2023-03-04T01:00:27.442Z,101050.91
2023-03-04T01:02:56.160Z,101051.84
2023-03-04T01:05:24.649Z,101047.53
2023-03-04T01:07:53.434Z,101042.31
2023-03-04T01:10:22.096Z,101041.47
2023-03-04T01:12:50.929Z,101050.28
2023-03-04T01:15:19.496Z,101045.94
2023-03-04T01:17:48.458Z,101040.66
2023-03-04T01:20:17.220Z,101038.09
2023-03-04T01:22:45.982Z,101030.44
2023-03-04T01:25:15.977Z,101028.75
2023-03-04T01:27:44.686Z,101024.28
2023-03-04T01:30:13.430Z,101033.63
2023-03-04T01:32:42.146Z,101028.53
2023-03-04T01:35:10.926Z,101021.75
2023-03-04T01:37:39.588Z,101024.19
2023-03-04T01:40:09.640Z,101028.66
2023-03-04T01:42:40.100Z,101030.44
2023-03-04T01:45:13.151Z,101012.00
2023-03-04T01:47:44.277Z,101026.94
2023-03-04T01:50:34.167Z,101021.75
2023-03-04T01:53:03.561Z,101018.16
2023-03-04T01:55:32.186Z,101020.16
2023-03-04T01:58:01.054Z,101013.78
2023-03-04T02:00:34.251Z,101011.47
2023-03-04T02:03:15.549Z,101005.31
2023-03-04T02:05:47.419Z,101019.22
2023-03-04T02:08:16.828Z,100998.41
2023-03-04T02:10:45.299Z,101006.06
2023-03-04T02:13:14.319Z,101002.69
2023-03-04T02:15:43.502Z,101000.31
2023-03-04T02:18:23.644Z,101002.69
2023-03-04T02:21:19.626Z,101002.53
2023-03-04T02:24:37.566Z,100995.66
2023-03-04T02:27:06.066Z,100987.19
2023-03-04T02:29:35.057Z,100993.34
2023-03-04T02:32:03.991Z,101001.06
2023-03-04T02:34:35.294Z,100999.28
2023-03-04T02:37:04.033Z,100996.09
2023-03-04T02:39:46.714Z,100996.63
2023-03-04T02:42:15.470Z,100992.38
2023-03-04T02:44:47.781Z,100991.53
2023-03-04T02:47:18.403Z,100989.72
2023-03-04T02:49:47.772Z,100986.47
2023-03-04T02:52:26.488Z,100970.84
2023-03-04T02:54:55.224Z,100987.19
2023-03-04T02:57:23.973Z,100982.84
2023-03-04T02:59:56.173Z,100985.50
2023-03-04T03:02:28.175Z,100979.34
2023-03-04T03:04:57.016Z,100982.09
2023-03-04T03:07:27.646Z,100975.00
2023-03-04T03:09:56.724Z,100976.81
2023-03-04T03:12:25.196Z,100973.41
2023-03-04T03:14:54.178Z,100959.41
2023-03-04T03:17:24.328Z,100969.78
2023-03-04T03:19:53.005Z,100969.78
2023-03-04T03:22:21.465Z,100966.41
2023-03-04T03:24:50.321Z,100972.44
2023-03-04T03:27:18.761Z,100972.66
2023-03-04T03:29:47.795Z,100955.19
2023-03-04T03:32:16.273Z,100963.00
2023-03-04T03:34:44.960Z,100964.72
2023-03-04T03:37:13.859Z,100957.72
2023-03-04T03:39:42.590Z,100956.22
2023-03-04T03:42:11.081Z,100964.81
2023-03-04T03:44:39.730Z,100965.78
2023-03-04T03:47:08.093Z,100965.03
2023-03-04T03:49:36.848Z,100964.91
2023-03-04T03:52:05.289Z,100959.63
2023-03-04T03:54:34.085Z,100957.72
2023-03-04T03:57:02.440Z,100959.63
2023-03-04T03:59:31.224Z,100964.06
2023-03-04T04:01:59.643Z,100949.44
2023-03-04T04:04:28.420Z,100959.84
2023-03-04T04:06:56.777Z,100954.44
2023-03-04T04:09:25.516Z,100960.69
2023-03-04T04:11:53.891Z,100964.19
2023-03-04T04:14:22.672Z,100965.16
2023-03-04T04:16:51.084Z,100959.31
2023-03-04T04:19:20.311Z,100964.28
2023-03-04T04:21:48.856Z,100963.53
2023-03-04T04:24:17.710Z,100955.91
2023-03-04T04:26:46.210Z,100969.72
2023-03-04T04:29:15.216Z,100965.34
2023-03-04T04:31:43.635Z,100971.63
2023-03-04T04:34:12.284Z,100963.88
2023-03-04T04:36:40.916Z,100969.16
2023-03-04T04:39:09.547Z,100970.97
2023-03-04T04:41:42.144Z,100972.78
2023-03-04T04:44:11.409Z,100976.28
2023-03-04T04:46:40.148Z,100972.78
2023-03-04T04:49:09.259Z,100991.44
2023-03-04T04:51:38.409Z,100981.66
2023-03-04T04:54:07.248Z,100979.13
2023-03-04T04:56:35.793Z,100985.25
2023-03-04T04:59:05.799Z,100977.44
2023-03-04T05:01:34.687Z,100981.88
2023-03-04T05:04:03.479Z,100983.69
2023-03-04T05:06:31.759Z,100989.06
2023-03-04T05:09:00.389Z,100990.88
2023-03-04T05:11:29.420Z,100993.34
2023-03-04T05:13:58.042Z,100981.88
2023-03-04T05:16:26.331Z,100988.25
2023-03-04T05:18:54.943Z,100990.56
2023-03-04T05:21:23.236Z,100986.34
2023-03-04T05:23:52.414Z,100979.75
2023-03-04T05:26:20.941Z,100984.63
2023-03-04T05:28:49.563Z,100983.16
2023-03-04T05:31:18.256Z,100979.00
2023-03-04T05:33:46.933Z,100984.19
2023-03-04T05:36:15.381Z,100989.53
2023-03-04T05:38:44.016Z,100987.00
2023-03-04T05:41:12.292Z,100992.59
2023-03-04T05:43:43.105Z,100977.41
2023-03-04T05:46:15.586Z,100983.63
2023-03-04T05:48:45.012Z,100984.34
2023-03-04T05:51:13.315Z,100989.06
2023-03-04T05:53:41.875Z,100990.44
2023-03-04T05:56:11.718Z,100996.25
2023-03-04T05:58:40.384Z,100993.59
2023-03-04T06:01:08.743Z,100993.16
2023-03-04T06:03:37.955Z,100980.41
2023-03-04T06:06:06.640Z,101001.19
2023-03-04T06:08:35.276Z,100997.47
2023-03-04T06:11:05.130Z,101004.69
2023-03-04T06:13:34.880Z,100991.75
2023-03-04T06:16:03.453Z,101009.28
2023-03-04T06:18:32.050Z,100999.63
2023-03-04T06:21:01.843Z,101006.28
2023-03-04T06:23:30.935Z,101017.66
2023-03-04T06:26:00.494Z,101005.31
2023-03-04T06:28:29.471Z,101012.47
2023-03-04T06:30:58.131Z,101011.00
2023-03-04T06:33:27.100Z,101003.03
2023-03-04T06:35:56.924Z,101004.97
2023-03-04T06:38:26.393Z,101010.41
2023-03-04T06:40:57.140Z,101012.72
2023-03-04T06:43:26.382Z,101025.66
2023-03-04T06:45:54.723Z,101017.22
2023-03-04T06:48:23.426Z,101021.91
2023-03-04T06:50:51.693Z,101021.53
2023-03-04T06:53:20.393Z,101030.00
2023-03-04T06:55:49.638Z,101030.59
2023-03-04T06:58:18.223Z,101027.94
2023-03-04T07:00:46.613Z,101033.34
2023-03-04T07:03:15.442Z,101032.53
2023-03-04T07:05:44.038Z,101022.25
2023-03-04T07:08:12.707Z,101023.81
2023-03-04T07:10:41.150Z,101027.56
2023-03-04T07:13:09.996Z,101033.22
2023-03-04T07:15:38.564Z,101030.31
2023-03-04T07:18:07.292Z,101031.63
2023-03-04T07:20:35.830Z,101035.47
2023-03-04T07:23:04.530Z,101031.47
2023-03-04T07:25:32.956Z,101033.84
2023-03-04T07:28:01.575Z,101033.31
2023-03-04T07:30:29.964Z,101029.09
2023-03-04T07:32:58.919Z,101035.75
2023-03-04T07:35:27.256Z,101025.34
2023-03-04T07:37:55.953Z,101028.25
2023-03-04T07:40:24.461Z,101028.25
2023-03-04T07:42:54.335Z,101032.34
2023-03-04T07:45:22.984Z,101034.16
2023-03-04T07:47:52.120Z,101030.50
2023-03-04T07:50:20.803Z,101028.00
2023-03-04T07:52:52.518Z,101036.19
2023-03-04T07:55:20.923Z,101028.22
2023-03-04T07:57:49.642Z,101033.78
2023-03-04T08:00:18.973Z,101027.47
2023-03-04T08:02:47.728Z,101026.00
2023-03-04T08:05:16.535Z,101031.22
2023-03-04T08:07:45.085Z,101026.84
2023-03-04T08:10:13.374Z,101025.41
2023-03-04T08:12:42.012Z,101031.69
2023-03-04T08:15:10.979Z,101028.88
2023-03-04T08:17:39.665Z,101011.13
2023-03-04T08:20:08.881Z,101028.16
2023-03-04T08:22:37.512Z,101022.13
2023-03-04T08:25:06.323Z,101016.81
2023-03-04T08:27:34.987Z,101024.66
2023-03-04T08:30:05.590Z,101019.47
2023-03-04T08:32:34.736Z,101014.25
2023-03-04T08:35:03.192Z,101015.13
2023-03-04T08:37:31.852Z,101011.84
2023-03-04T08:40:00.179Z,101008.47
2023-03-04T08:42:28.874Z,101015.34
2023-03-04T08:44:57.158Z,101013.66
2023-03-04T08:47:25.804Z,101010.69
2023-03-04T08:49:54.391Z,101001.81
2023-03-04T08:52:23.471Z,101006.03
2023-03-04T08:54:51.865Z,101001.72
2023-03-04T08:57:20.546Z,101010.50
2023-03-04T08:59:48.793Z,101001.59
2023-03-04T09:02:17.502Z,101001.72
2023-03-04T09:04:45.899Z,101008.50
2023-03-04T09:07:14.641Z,100995.66
2023-03-04T09:09:43.065Z,100995.78
2023-03-04T09:12:11.830Z,100994.59
2023-03-04T09:14:40.267Z,100995.38
2023-03-04T09:17:10.399Z,100998.22
2023-03-04T09:19:38.982Z,100991.22
2023-03-04T09:22:07.702Z,100983.25
2023-03-04T09:24:36.071Z,100987.47
2023-03-04T09:27:04.846Z,100986.72
2023-03-04T09:29:33.406Z,100988.16
2023-03-04T09:32:02.119Z,100989.09
2023-03-04T09:34:30.504Z,100986.91
2023-03-04T09:36:59.256Z,100988.38
2023-03-04T09:39:27.952Z,100980.94
2023-03-04T09:41:58.435Z,100982.41
2023-03-04T09:44:41.445Z,100982.19
2023-03-04T09:47:15.925Z,100977.00
2023-03-04T09:50:01.118Z,100980.38
2023-03-04T09:52:52.925Z,100987.25
2023-03-04T09:55:34.272Z,100967.47
2023-03-04T09:58:13.882Z,100984.16
2023-03-04T10:00:52.647Z,100977.16
2023-03-04T10:03:25.725Z,100969.09
2023-03-04T10:06:06.825Z,100968.34
2023-03-04T10:08:47.413Z,100980.66
2023-03-04T10:11:24.959Z,100971.59
2023-03-04T10:14:10.897Z,100968.09
2023-03-04T10:17:21.791Z,100960.13
2023-03-04T10:20:01.929Z,100956.75
2023-03-04T10:22:37.740Z,100957.16
2023-03-04T10:25:28.371Z,100956.22
2023-03-04T10:28:16.778Z,100959.88
2023-03-04T10:31:06.333Z,100959.78
2023-03-04T10:33:39.812Z,100946.69
2023-03-04T10:36:31.361Z,100944.00
2023-03-04T10:39:13.432Z,100937.75
2023-03-04T10:41:54.231Z,100939.81
2023-03-04T10:44:23.268Z,100923.50
2023-03-04T10:46:54.782Z,100929.31
2023-03-04T10:49:24.994Z,100929.28
2023-03-04T10:52:15.809Z,100921.66
2023-03-04T10:54:53.906Z,100918.13
2023-03-04T10:57:43.891Z,100918.34
2023-03-04T11:00:17.852Z,100917.63
2023-03-04T11:02:47.419Z,100908.69
2023-03-04T11:05:16.639Z,100901.63
2023-03-04T11:07:55.212Z,100906.81
2023-03-04T11:10:37.051Z,100903.75
2023-03-04T11:13:23.711Z,100897.59
2023-03-04T11:15:58.111Z,100897.63
2023-03-04T11:18:44.946Z,100897.00
2023-03-04T11:21:26.193Z,100879.78
2023-03-04T11:23:59.372Z,100904.00
2023-03-04T11:26:34.336Z,100886.25
2023-03-04T11:29:16.645Z,100880.56
2023-03-04T11:32:03.784Z,100878.72
2023-03-04T11:34:50.477Z,100865.06
2023-03-04T11:38:06.263Z,100861.88
2023-03-04T11:40:38.976Z,100863.63
2023-03-04T11:43:18.493Z,100852.50
2023-03-04T11:46:24.885Z,100848.63
2023-03-04T11:49:21.085Z,100854.34
2023-03-04T11:52:20.387Z,100851.09
2023-03-04T11:55:46.008Z,100847.84
2023-03-04T11:58:51.439Z,100835.47
2023-03-04T12:01:32.172Z,100828.75
2023-03-04T12:04:16.495Z,100825.00
2023-03-04T12:07:01.627Z,100821.38
2023-03-04T12:09:40.269Z,100817.19
2023-03-04T12:12:51.910Z,100814.03
2023-03-04T12:15:55.429Z,100802.78
2023-03-04T12:19:08.168Z,100804.25
2023-03-04T12:22:06.644Z,100790.13
2023-03-04T12:25:08.579Z,100798.69
2023-03-04T12:27:58.802Z,100780.56
2023-03-04T12:31:05.055Z,100784.31
2023-03-04T12:33:53.228Z,100772.09
2023-03-04T12:36:30.662Z,100775.69
2023-03-04T12:39:13.521Z,100768.41
2023-03-04T12:42:17.187Z,100758.03
2023-03-04T12:45:18.671Z,100753.22
2023-03-04T12:48:28.667Z,100758.91
2023-03-04T12:51:18.168Z,100753.31
2023-03-04T12:54:26.261Z,100750.56
2023-03-04T12:57:03.166Z,100747.16
2023-03-04T12:59:50.839Z,100745.06
2023-03-04T13:02:37.662Z,100738.75
2023-03-04T13:05:46.480Z,100739.72
2023-03-04T13:08:46.178Z,100736.41
2023-03-04T13:11:26.480Z,100731.34
2023-03-04T13:14:17.527Z,100722.41
2023-03-04T13:16:49.618Z,100717.53
2023-03-04T13:19:57.082Z,100727.53
2023-03-04T13:22:50.473Z,100725.06
2023-03-04T13:25:46.263Z,100698.75
2023-03-04T13:28:22.532Z,100705.50
2023-03-04T13:30:59.656Z,100708.25
2023-03-04T13:33:27.907Z,100704.59
2023-03-04T13:36:26.202Z,100702.00
2023-03-04T13:39:18.502Z,100704.47
2023-03-04T13:41:54.247Z,100690.47
2023-03-04T13:44:57.144Z,100696.25
2023-03-04T13:47:42.613Z,100677.16
2023-03-04T13:50:48.381Z,100691.66
2023-03-04T13:53:41.079Z,100684.63
2023-03-04T13:56:12.942Z,100685.34
2023-03-04T13:58:41.567Z,100685.50
2023-03-04T14:01:32.247Z,100679.19
2023-03-04T14:04:01.886Z,100678.34
2023-03-04T14:06:31.919Z,100666.88
2023-03-04T14:09:00.746Z,100667.69
2023-03-04T14:11:42.131Z,100668.66
2023-03-04T14:14:17.188Z,100662.50
2023-03-04T14:16:55.000Z,100657.19
2023-03-04T14:19:38.666Z,100659.84
2023-03-04T14:22:28.488Z,100656.34
2023-03-04T14:25:22.679Z,100654.41
2023-03-04T14:27:51.198Z,100660.56
2023-03-04T14:30:41.578Z,100645.00
2023-03-04T14:33:18.137Z,100637.84
2023-03-04T14:35:52.001Z,100652.56
2023-03-04T14:38:35.689Z,100644.13
2023-03-04T14:41:26.031Z,100636.16
2023-03-04T14:44:05.569Z,100627.34
2023-03-04T14:46:49.309Z,100635.06
2023-03-04T14:49:25.586Z,100624.53
2023-03-04T14:51:55.483Z,100625.50
2023-03-04T14:54:39.254Z,100621.06
2023-03-04T14:57:22.555Z,100620.19
2023-03-04T14:59:51.670Z,100614.88
2023-03-04T15:02:41.833Z,100604.38
2023-03-04T15:05:17.501Z,100607.16
2023-03-04T15:07:52.755Z,100606.19
2023-03-04T15:10:27.973Z,100602.69
2023-03-04T15:13:01.455Z,100602.69
2023-03-04T15:15:46.583Z,100600.16
2023-03-04T15:18:26.621Z,100593.16
2023-03-04T15:20:59.714Z,100586.41
2023-03-04T15:23:30.295Z,100594.28
2023-03-04T15:26:04.022Z,100587.13
2023-03-04T15:28:38.010Z,100594.28
2023-03-04T15:31:06.874Z,100588.09
2023-03-04T15:33:35.959Z,100582.88
2023-03-04T15:36:04.698Z,100582.88
2023-03-04T15:38:33.452Z,100582.88
2023-03-04T15:41:02.206Z,100590.16
2023-03-04T15:43:30.945Z,100584.00
2023-03-04T15:45:59.501Z,100581.47
2023-03-04T15:48:28.452Z,100579.78
2023-03-04T15:51:03.652Z,100582.59
2023-03-04T15:53:44.976Z,100571.47
2023-03-04T15:56:17.166Z,100579.47
2023-03-04T15:58:48.518Z,100577.50
2023-03-04T16:01:17.680Z,100583.69
2023-03-04T16:03:46.395Z,100576.78
2023-03-04T16:06:15.942Z,100579.97
2023-03-04T16:08:44.837Z,100583.34
2023-03-04T16:11:19.246Z,100570.34
2023-03-04T16:13:48.233Z,100581.94
2023-03-04T16:16:16.814Z,100581.09
2023-03-04T16:18:45.620Z,100577.72
2023-03-04T16:21:19.022Z,100580.78
2023-03-04T16:23:49.320Z,100577.38
2023-03-04T16:26:25.135Z,100575.72
2023-03-04T16:28:54.187Z,100576.94
2023-03-04T16:31:22.782Z,100571.75
2023-03-04T16:33:51.837Z,100576.22
2023-03-04T16:36:29.057Z,100579.13
2023-03-04T16:38:59.920Z,100581.91
2023-03-04T16:41:30.913Z,100574.94
2023-03-04T16:44:00.685Z,100563.81
2023-03-04T16:46:30.329Z,100575.31
2023-03-04T16:48:59.088Z,100569.25
2023-03-04T16:51:27.450Z,100569.25
2023-03-04T16:53:58.068Z,100566.88
2023-03-04T16:56:26.595Z,100571.34
2023-03-04T16:58:55.222Z,100567.13
2023-03-04T17:01:28.815Z,100567.28
2023-03-04T17:03:57.887Z,100571.72
2023-03-04T17:06:26.225Z,100572.72
2023-03-04T17:08:54.805Z,100571.00
2023-03-04T17:11:23.869Z,100568.34
2023-03-04T17:13:52.721Z,100567.91
2023-03-04T17:16:21.168Z,100574.06
2023-03-04T17:18:50.005Z,100569.56
2023-03-04T17:21:21.609Z,100574.97
2023-03-04T17:23:50.446Z,100575.88
2023-03-04T17:26:23.172Z,100579.47
2023-03-04T17:28:51.870Z,100578.75
2023-03-04T17:31:20.604Z,100578.75
2023-03-04T17:33:49.610Z,100575.38
2023-03-04T17:36:18.879Z,100580.69
2023-03-04T17:38:49.614Z,100584.28
2023-03-04T17:41:18.951Z,100586.94
2023-03-04T17:43:49.836Z,100583.47
2023-03-04T17:46:20.732Z,100577.31
2023-03-04T17:48:49.858Z,100583.34
2023-03-04T17:51:19.015Z,100583.09
2023-03-04T17:53:47.836Z,100578.63
2023-03-04T17:56:16.188Z,100579.56
2023-03-04T17:58:44.785Z,100585.34
2023-03-04T18:01:19.479Z,100587.09
2023-03-04T18:03:48.744Z,100582.25
2023-03-04T18:06:17.425Z,100589.19
2023-03-04T18:08:46.840Z,100586.88
2023-03-04T18:11:15.308Z,100591.34
2023-03-04T18:13:44.552Z,100595.28
2023-03-04T18:16:15.194Z,100592.44
2023-03-04T18:18:44.016Z,100593.59
2023-03-04T18:21:13.980Z,100593.34
2023-03-04T18:23:42.712Z,100594.34
2023-03-04T18:26:11.332Z,100590.59
2023-03-04T18:28:40.467Z,100590.84
2023-03-04T18:31:10.580Z,100583.88
2023-03-04T18:33:40.005Z,100587.41
2023-03-04T18:36:09.798Z,100589.47
2023-03-04T18:38:38.668Z,100592.56
2023-03-04T18:41:09.391Z,100590.72
2023-03-04T18:43:38.278Z,100597.00
2023-03-04T18:46:18.547Z,100589.19
2023-03-04T18:49:00.350Z,100597.16
2023-03-04T18:51:28.796Z,100577.63
2023-03-04T18:53:57.945Z,100591.63
2023-03-04T18:56:48.244Z,100579.84
2023-03-04T18:59:26.918Z,100584.06
2023-03-04T19:01:55.313Z,100603.38
2023-03-04T19:04:23.964Z,100594.13
2023-03-04T19:06:52.943Z,100599.44
2023-03-04T19:09:21.898Z,100602.38
2023-03-04T19:11:50.365Z,100606.69
2023-03-04T19:14:19.282Z,100601.38
2023-03-04T19:16:48.779Z,100602.63
2023-03-04T19:19:17.732Z,100603.59
2023-03-04T19:21:46.166Z,100583.81
2023-03-04T19:24:15.122Z,100602.03
2023-03-04T19:26:43.740Z,100607.50
2023-03-04T19:29:12.699Z,100596.13
2023-03-04T19:31:41.582Z,100598.06
2023-03-04T19:34:10.605Z,100598.22
2023-03-04T19:36:39.234Z,100603.66
2023-03-04T19:39:09.664Z,100606.31
2023-03-04T19:41:38.063Z,100604.91
2023-03-04T19:44:06.839Z,100606.56
2023-03-04T19:46:35.190Z,100599.59
2023-03-04T19:49:05.225Z,100599.81
2023-03-04T19:51:34.120Z,100600.94
2023-03-04T19:54:02.982Z,100601.78
2023-03-04T19:56:31.397Z,100606.25
2023-03-04T19:59:00.245Z,100605.53
2023-03-04T20:01:30.884Z,100610.16
2023-03-04T20:04:02.458Z,100614.59
2023-03-04T20:06:31.112Z,100610.38
2023-03-04T20:09:00.979Z,100610.38
2023-03-04T20:11:29.903Z,100618.50
2023-03-04T20:14:00.329Z,100620.44
2023-03-04T20:16:29.071Z,100625.75
2023-03-04T20:19:00.772Z,100629.41
2023-03-04T20:21:58.311Z,100620.69
2023-03-04T20:24:27.248Z,100621.06
2023-03-04T20:26:55.952Z,100620.09
2023-03-04T20:29:27.246Z,100620.00
2023-03-04T20:31:55.686Z,100627.97
2023-03-04T20:34:25.612Z,100621.22
2023-03-04T20:36:53.941Z,100630.97
2023-03-04T20:39:29.041Z,100628.47
2023-03-04T20:41:58.419Z,100630.16
2023-03-04T20:44:27.566Z,100626.91
2023-03-04T20:46:56.047Z,100633.28
2023-03-04T20:49:26.984Z,100628.56
2023-03-04T20:52:00.417Z,100630.31
2023-03-04T20:54:30.359Z,100635.38
2023-03-04T20:56:58.889Z,100640.78
2023-03-04T20:59:27.960Z,100640.84
2023-03-04T21:01:56.834Z,100632.47
2023-03-04T21:04:25.580Z,100635.91
2023-03-04T21:06:54.117Z,100641.09
2023-03-04T21:09:23.427Z,100634.66
2023-03-04T21:11:52.277Z,100630.13
2023-03-04T21:14:26.606Z,100632.13
2023-03-04T21:16:58.024Z,100634.47
2023-03-04T21:19:32.839Z,100635.91
2023-03-04T21:22:01.697Z,100634.47
2023-03-04T21:24:33.314Z,100626.03
2023-03-04T21:27:02.185Z,100638.97
2023-03-04T21:29:31.042Z,100633.88
2023-03-04T21:32:20.865Z,100631.34
2023-03-04T21:34:52.528Z,100624.94
2023-03-04T21:37:22.358Z,100620.88
2023-03-04T21:39:51.280Z,100621.00
2023-03-04T21:42:20.153Z,100626.31
2023-03-04T21:44:50.724Z,100632.59
2023-03-04T21:47:21.063Z,100625.72
2023-03-04T21:49:50.007Z,100629.34
2023-03-04T21:52:19.815Z,100628.78
2023-03-04T21:54:48.824Z,100616.13
2023-03-04T21:57:17.597Z,100627.31
2023-03-04T21:59:46.608Z,100629.03
2023-03-04T22:02:17.288Z,100624.34
2023-03-04T22:04:46.020Z,100623.41
2023-03-04T22:07:14.445Z,100616.63
2023-03-04T22:09:43.168Z,100619.28
2023-03-04T22:12:11.544Z,100614.34
2023-03-04T22:14:40.211Z,100616.06
2023-03-04T22:17:08.753Z,100615.19
2023-03-04T22:19:37.540Z,100614.34
2023-03-04T22:22:06.619Z,100620.78
2023-03-04T22:24:35.801Z,100611.09
2023-03-04T22:27:04.523Z,100612.09
2023-03-04T22:29:33.173Z,100611.50
2023-03-04T22:32:01.652Z,100615.97
2023-03-04T22:34:30.645Z,100609.78
2023-03-04T22:36:58.973Z,100605.00
2023-03-04T22:39:27.631Z,100611.75
2023-03-04T22:41:56.055Z,100591.38
2023-03-04T22:44:24.915Z,100608.66
2023-03-04T22:46:53.210Z,100612.25
2023-03-04T22:49:21.832Z,100606.94
2023-03-04T22:51:50.185Z,100613.25
2023-03-04T22:54:19.242Z,100609.00
2023-03-04T22:56:47.540Z,100606.84
2023-03-04T22:59:16.196Z,100618.09
2023-03-04T23:01:44.618Z,100610.22
2023-03-04T23:04:13.222Z,100611.34
2023-03-04T23:06:41.664Z,100603.59
2023-03-04T23:09:10.350Z,100609.53
2023-03-04T23:11:39.660Z,100604.47
2023-03-04T23:14:08.716Z,100609.06
2023-03-04T23:16:41.252Z,100615.34
2023-03-04T23:19:15.062Z,100617.16
2023-03-04T23:21:43.652Z,100611.84
2023-03-04T23:24:12.706Z,100606.03
2023-03-04T23:26:41.598Z,100614.00
2023-03-04T23:29:12.486Z,100614.28
2023-03-04T23:31:40.822Z,100615.94
2023-03-04T23:34:09.605Z,100615.00
2023-03-04T23:36:38.217Z,100615.22
2023-03-04T23:39:07.402Z,100615.22
2023-03-04T23:41:35.875Z,100615.22
2023-03-04T23:44:05.096Z,100601.59
2023-03-04T23:46:33.514Z,100611.97
2023-03-04T23:49:02.105Z,100608.47
2023-03-04T23:51:31.220Z,100594.97
2023-03-04T23:53:59.980Z,100602.69
2023-03-04T23:56:30.509Z,100601.72
2023-03-04T23:59:00.012Z,100605.34
